createdAt,value
2022-11-28T00:00:08.280Z,1005.07
2022-11-28T00:01:08.272Z,1005.03
2022-11-28T00:02:08.465Z,1005.02
2022-11-28T00:03:08.380Z,1005.03
2022-11-28T00:04:08.352Z,1005.07
2022-11-28T00:05:08.257Z,1005.10
2022-11-28T00:06:08.228Z,1005.07
2022-11-28T00:07:08.205Z,1005.03
2022-11-28T00:08:08.193Z,1005.05
2022-11-28T00:09:08.178Z,1004.96
2022-11-28T00:10:08.166Z,1004.83
2022-11-28T00:11:08.172Z,1004.79
2022-11-28T00:12:08.142Z,1004.80
2022-11-28T00:13:08.134Z,1004.74
2022-11-28T00:14:08.123Z,1004.66
2022-11-28T00:15:16.912Z,1004.63
2022-11-28T00:16:08.290Z,1004.67
2022-11-28T00:17:08.098Z,1004.70
2022-11-28T00:18:08.092Z,1004.66
2022-11-28T00:19:08.062Z,1004.57
2022-11-28T00:20:08.186Z,1004.63
2022-11-28T00:21:08.042Z,1004.62
2022-11-28T00:22:08.040Z,1004.67
2022-11-28T00:23:08.017Z,1004.65
2022-11-28T00:24:08.011Z,1004.71
2022-11-28T00:25:08.006Z,1004.75
2022-11-28T00:26:08.007Z,1004.71
2022-11-28T00:27:07.972Z,1004.74
2022-11-28T00:28:07.981Z,1004.61
2022-11-28T00:29:07.949Z,1004.60
2022-11-28T00:30:07.963Z,1004.63
2022-11-28T00:31:07.930Z,1004.60
2022-11-28T00:32:07.967Z,1004.57
2022-11-28T00:33:07.904Z,1004.58
2022-11-28T00:34:07.915Z,1004.60
2022-11-28T00:35:07.879Z,1004.61
2022-11-28T00:36:07.991Z,1004.62
2022-11-28T00:37:07.869Z,1004.63
2022-11-28T00:38:07.851Z,1004.60
2022-11-28T00:39:07.839Z,1004.50
2022-11-28T00:40:07.827Z,1004.51
2022-11-28T00:41:07.817Z,1004.53
2022-11-28T00:42:07.837Z,1004.47
2022-11-28T00:43:07.792Z,1004.51
2022-11-28T00:44:07.792Z,1004.50
2022-11-28T00:45:07.784Z,1004.47
2022-11-28T00:46:07.886Z,1004.48
2022-11-28T00:47:07.745Z,1004.40
2022-11-28T00:48:07.768Z,1004.37
2022-11-28T00:49:07.722Z,1004.37
2022-11-28T00:50:07.728Z,1004.33
2022-11-28T00:51:07.727Z,1004.27
2022-11-28T00:52:07.811Z,1004.31
2022-11-28T00:53:07.690Z,1004.28
2022-11-28T00:54:07.689Z,1004.22
2022-11-28T00:55:07.655Z,1004.26
2022-11-28T00:56:07.648Z,1004.23
2022-11-28T00:57:07.656Z,1004.20
2022-11-28T00:58:07.634Z,1004.18
2022-11-28T00:59:07.629Z,1004.21
2022-11-28T01:00:07.630Z,1004.20
2022-11-28T01:01:07.645Z,1004.23
2022-11-28T01:02:07.609Z,1004.25
2022-11-28T01:03:07.582Z,1004.29
2022-11-28T01:04:07.558Z,1004.27
2022-11-28T01:05:07.543Z,1004.39
2022-11-28T01:06:07.559Z,1004.40
2022-11-28T01:07:07.520Z,1004.34
2022-11-28T01:08:07.647Z,1004.27
2022-11-28T01:09:07.512Z,1004.28
2022-11-28T01:10:07.488Z,1004.26
2022-11-28T01:11:07.477Z,1004.27
2022-11-28T01:12:07.490Z,1004.23
2022-11-28T01:13:07.454Z,1004.24
2022-11-28T01:14:07.454Z,1004.18
2022-11-28T01:15:07.430Z,1004.22
2022-11-28T01:16:07.502Z,1004.18
2022-11-28T01:17:07.408Z,1004.19
2022-11-28T01:18:07.411Z,1004.23
2022-11-28T01:19:07.395Z,1004.14
2022-11-28T01:20:07.378Z,1004.15
2022-11-28T01:21:07.361Z,1004.07
2022-11-28T01:22:07.371Z,1004.04
2022-11-28T01:23:07.336Z,1004.06
2022-11-28T01:24:07.454Z,1004.11
2022-11-28T01:25:07.317Z,1004.17
2022-11-28T01:26:07.328Z,1004.06
2022-11-28T01:27:07.329Z,1004.06
2022-11-28T01:28:07.286Z,1004.05
2022-11-28T01:29:07.305Z,1004.07
2022-11-28T01:30:07.263Z,1004.00
2022-11-28T01:31:07.340Z,1003.98
2022-11-28T01:32:07.262Z,1003.95
2022-11-28T01:33:07.224Z,1003.95
2022-11-28T01:34:07.239Z,1003.89
2022-11-28T01:35:07.227Z,1003.89
2022-11-28T01:36:07.193Z,1003.92
2022-11-28T01:37:07.180Z,1003.93
2022-11-28T01:38:07.169Z,1003.96
2022-11-28T01:39:07.162Z,1003.90
2022-11-28T01:40:07.282Z,1003.98
2022-11-28T01:41:07.156Z,1003.92
2022-11-28T01:42:07.126Z,1003.89
2022-11-28T01:43:07.117Z,1003.91
2022-11-28T01:44:07.118Z,1003.80
2022-11-28T01:45:07.100Z,1003.81
2022-11-28T01:46:07.081Z,1003.79
2022-11-28T01:47:07.153Z,1003.82
2022-11-28T01:48:07.059Z,1003.71
2022-11-28T01:49:07.057Z,1003.73
2022-11-28T01:50:07.045Z,1003.83
2022-11-28T01:51:07.050Z,1003.77
2022-11-28T01:52:07.011Z,1003.75
2022-11-28T01:53:07.001Z,1003.85
2022-11-28T01:54:07.010Z,1003.75
2022-11-28T01:55:06.982Z,1003.72
2022-11-28T01:56:07.086Z,1003.81
2022-11-28T01:57:06.956Z,1003.81
2022-11-28T01:58:06.948Z,1003.80
2022-11-28T01:59:06.931Z,1003.79
2022-11-28T02:00:06.950Z,1003.71
2022-11-28T02:01:06.965Z,1003.77
2022-11-28T02:02:06.960Z,1003.78
2022-11-28T02:03:06.887Z,1003.77
2022-11-28T02:04:06.879Z,1003.81
2022-11-28T02:05:06.866Z,1003.73
2022-11-28T02:06:06.881Z,1003.77
2022-11-28T02:07:06.841Z,1003.68
2022-11-28T02:08:06.839Z,1003.70
2022-11-28T02:09:06.817Z,1003.61
2022-11-28T02:10:06.809Z,1003.63
2022-11-28T02:11:06.834Z,1003.64
2022-11-28T02:12:07.006Z,1003.64
2022-11-28T02:13:06.774Z,1003.58
2022-11-28T02:14:06.767Z,1003.63
2022-11-28T02:15:06.749Z,1003.63
2022-11-28T02:16:06.790Z,1003.63
2022-11-28T02:17:06.734Z,1003.56
2022-11-28T02:18:06.726Z,1003.56
2022-11-28T02:19:06.706Z,1003.64
2022-11-28T02:20:06.694Z,1003.58
2022-11-28T02:21:06.691Z,1003.57
2022-11-28T02:22:06.694Z,1003.58
2022-11-28T02:23:06.658Z,1003.53
2022-11-28T02:24:06.662Z,1003.54
2022-11-28T02:25:06.638Z,1003.61
2022-11-28T02:26:06.639Z,1003.56
2022-11-28T02:27:06.609Z,1003.56
2022-11-28T02:28:06.721Z,1003.52
2022-11-28T02:29:06.589Z,1003.50
2022-11-28T02:30:06.599Z,1003.58
2022-11-28T02:31:06.638Z,1003.51
2022-11-28T02:32:06.561Z,1003.53
2022-11-28T02:33:06.546Z,1003.52
2022-11-28T02:34:06.543Z,1003.50
2022-11-28T02:35:06.537Z,1003.52
2022-11-28T02:36:06.691Z,1003.47
2022-11-28T02:37:06.503Z,1003.50
2022-11-28T02:38:06.490Z,1003.52
2022-11-28T02:39:06.486Z,1003.53
2022-11-28T02:40:06.471Z,1003.51
2022-11-28T02:41:06.456Z,1003.47
2022-11-28T02:42:06.465Z,1003.51
2022-11-28T02:43:06.433Z,1003.47
2022-11-28T02:44:06.544Z,1003.41
2022-11-28T02:45:06.412Z,1003.44
2022-11-28T02:46:06.402Z,1003.49
2022-11-28T02:47:06.423Z,1003.42
2022-11-28T02:48:06.389Z,1003.41
2022-11-28T02:49:06.394Z,1003.41
2022-11-28T02:50:06.357Z,1003.44
2022-11-28T02:51:06.343Z,1003.42
2022-11-28T02:52:06.345Z,1003.42
2022-11-28T02:53:06.326Z,1003.49
2022-11-28T02:54:06.320Z,1003.47
2022-11-28T02:55:06.316Z,1003.42
2022-11-28T02:56:06.288Z,1003.46
2022-11-28T02:57:06.306Z,1003.54
2022-11-28T02:58:06.265Z,1003.47
2022-11-28T02:59:06.251Z,1003.50
2022-11-28T03:00:06.358Z,1003.53
2022-11-28T03:01:06.288Z,1003.49
2022-11-28T03:02:06.235Z,1003.48
2022-11-28T03:03:06.230Z,1003.57
2022-11-28T03:04:06.197Z,1003.58
2022-11-28T03:05:06.187Z,1003.55
2022-11-28T03:06:06.184Z,1003.48
2022-11-28T03:07:06.171Z,1003.45
2022-11-28T03:08:06.153Z,1003.48
2022-11-28T03:09:06.138Z,1003.43
2022-11-28T03:10:06.134Z,1003.52
2022-11-28T03:11:06.145Z,1003.46
2022-11-28T03:12:06.119Z,1003.43
2022-11-28T03:13:06.099Z,1003.50
2022-11-28T03:14:06.089Z,1003.43
2022-11-28T03:15:06.072Z,1003.52
2022-11-28T03:16:06.244Z,1003.67
2022-11-28T03:17:06.074Z,1003.56
2022-11-28T03:18:06.053Z,1003.59
2022-11-28T03:19:06.025Z,1003.63
2022-11-28T03:20:06.035Z,1003.65
2022-11-28T03:21:06.015Z,1003.67
2022-11-28T03:22:06.015Z,1003.63
2022-11-28T03:23:05.989Z,1003.66
2022-11-28T03:24:05.973Z,1003.71
2022-11-28T03:25:05.956Z,1003.71
2022-11-28T03:26:05.951Z,1003.64
2022-11-28T03:27:05.946Z,1003.65
2022-11-28T03:28:05.950Z,1003.67
2022-11-28T03:29:05.915Z,1003.57
2022-11-28T03:30:05.903Z,1003.59
2022-11-28T03:31:05.933Z,1003.57
2022-11-28T03:32:06.004Z,1003.49
2022-11-28T03:33:05.884Z,1003.44
2022-11-28T03:34:05.863Z,1003.47
2022-11-28T03:35:05.849Z,1003.43
2022-11-28T03:36:05.839Z,1003.42
2022-11-28T03:37:05.824Z,1003.45
2022-11-28T03:38:05.855Z,1003.37
2022-11-28T03:39:05.803Z,1003.31
2022-11-28T03:40:05.794Z,1003.35
2022-11-28T03:41:05.781Z,1003.36
2022-11-28T03:42:05.834Z,1003.38
2022-11-28T03:43:05.763Z,1003.35
2022-11-28T03:44:05.765Z,1003.29
2022-11-28T03:45:05.742Z,1003.29
2022-11-28T03:46:05.726Z,1003.32
2022-11-28T03:47:05.776Z,1003.40
2022-11-28T03:48:05.823Z,1003.32
2022-11-28T03:49:05.704Z,1003.26
2022-11-28T03:50:05.795Z,1003.25
2022-11-28T03:51:05.693Z,1003.25
2022-11-28T03:52:05.662Z,1003.26
2022-11-28T03:53:05.681Z,1003.30
2022-11-28T03:54:05.636Z,1003.33
2022-11-28T03:55:05.621Z,1003.27
2022-11-28T03:56:05.708Z,1003.29
2022-11-28T03:57:05.623Z,1003.30
2022-11-28T03:58:05.593Z,1003.41
2022-11-28T03:59:05.592Z,1003.35
2022-11-28T04:00:05.574Z,1003.29
2022-11-28T04:01:05.610Z,1003.30
2022-11-28T04:02:05.553Z,1003.33
2022-11-28T04:03:05.641Z,1003.34
2022-11-28T04:04:05.643Z,1003.29
2022-11-28T04:05:05.514Z,1003.27
2022-11-28T04:06:05.503Z,1003.30
2022-11-28T04:07:05.499Z,1003.28
2022-11-28T04:08:05.547Z,1003.32
2022-11-28T04:09:07.130Z,1003.29
2022-11-28T04:10:05.462Z,1003.23
2022-11-28T04:11:05.460Z,1003.31
2022-11-28T04:12:05.435Z,1003.33
2022-11-28T04:13:05.420Z,1003.27
2022-11-28T04:14:05.424Z,1003.34
2022-11-28T04:15:05.404Z,1003.27
2022-11-28T04:16:05.421Z,1003.36
2022-11-28T04:17:05.388Z,1003.33
2022-11-28T04:18:05.372Z,1003.23
2022-11-28T04:19:05.366Z,1003.35
2022-11-28T04:20:05.485Z,1003.37
2022-11-28T04:21:05.330Z,1003.37
2022-11-28T04:22:05.323Z,1003.36
2022-11-28T04:23:05.315Z,1003.42
2022-11-28T04:24:05.318Z,1003.40
2022-11-28T04:25:05.294Z,1003.38
2022-11-28T04:26:05.305Z,1003.35
2022-11-28T04:27:05.264Z,1003.35
2022-11-28T04:28:05.260Z,1003.37
2022-11-28T04:29:05.253Z,1003.42
2022-11-28T04:30:05.267Z,1003.36
2022-11-28T04:31:05.336Z,1003.41
2022-11-28T04:32:05.248Z,1003.45
2022-11-28T04:33:05.255Z,1003.40
2022-11-28T04:34:05.197Z,1003.37
2022-11-28T04:35:05.173Z,1003.34
2022-11-28T04:36:05.276Z,1003.41
2022-11-28T04:37:09.554Z,1003.32
2022-11-28T04:38:05.162Z,1003.37
2022-11-28T04:39:05.134Z,1003.33
2022-11-28T04:40:05.126Z,1003.33
2022-11-28T04:41:05.107Z,1003.38
2022-11-28T04:42:05.093Z,1003.38
2022-11-28T04:43:05.095Z,1003.39
2022-11-28T04:44:05.074Z,1003.33
2022-11-28T04:45:05.070Z,1003.33
2022-11-28T04:46:05.119Z,1003.42
2022-11-28T04:47:05.042Z,1003.36
2022-11-28T04:48:05.053Z,1003.39
2022-11-28T04:49:05.028Z,1003.33
2022-11-28T04:50:05.019Z,1003.40
2022-11-28T04:51:04.994Z,1003.34
2022-11-28T04:52:05.003Z,1003.35
2022-11-28T04:53:04.972Z,1003.41
2022-11-28T04:54:04.963Z,1003.34
2022-11-28T04:55:04.965Z,1003.37
2022-11-28T04:56:04.946Z,1003.33
2022-11-28T04:57:04.926Z,1003.36
2022-11-28T04:58:04.915Z,1003.30
2022-11-28T04:59:04.915Z,1003.26
2022-11-28T05:00:04.905Z,1003.29
2022-11-28T05:01:05.009Z,1003.20
2022-11-28T05:02:04.952Z,1003.22
2022-11-28T05:03:04.863Z,1003.25
2022-11-28T05:04:04.847Z,1003.26
2022-11-28T05:05:04.845Z,1003.24
2022-11-28T05:06:04.851Z,1003.22
2022-11-28T05:07:04.839Z,1003.25
2022-11-28T05:08:04.980Z,1003.25
2022-11-28T05:09:04.794Z,1003.21
2022-11-28T05:10:04.786Z,1003.18
2022-11-28T05:11:04.802Z,1003.23
2022-11-28T05:12:04.791Z,1003.28
2022-11-28T05:13:04.747Z,1003.30
2022-11-28T05:14:04.734Z,1003.32
2022-11-28T05:15:04.765Z,1003.27
2022-11-28T05:16:04.748Z,1003.28
2022-11-28T05:17:04.704Z,1003.23
2022-11-28T05:18:04.698Z,1003.32
2022-11-28T05:19:04.678Z,1003.24
2022-11-28T05:20:04.666Z,1003.31
2022-11-28T05:21:04.670Z,1003.33
2022-11-28T05:22:04.644Z,1003.28
2022-11-28T05:23:04.642Z,1003.31
2022-11-28T05:24:04.747Z,1003.31
2022-11-28T05:25:04.614Z,1003.34
2022-11-28T05:26:04.659Z,1003.31
2022-11-28T05:27:04.592Z,1003.31
2022-11-28T05:28:04.576Z,1003.34
2022-11-28T05:29:04.569Z,1003.29
2022-11-28T05:30:04.591Z,1003.41
2022-11-28T05:31:04.552Z,1003.41
2022-11-28T05:32:04.607Z,1003.41
2022-11-28T05:33:04.559Z,1003.44
2022-11-28T05:34:04.510Z,1003.41
2022-11-28T05:35:04.513Z,1003.45
2022-11-28T05:36:08.514Z,1003.45
2022-11-28T05:37:05.479Z,1003.42
2022-11-28T05:38:07.145Z,1003.45
2022-11-28T05:39:04.475Z,1003.41
2022-11-28T05:40:04.573Z,1003.40
2022-11-28T05:41:04.442Z,1003.44
2022-11-28T05:42:04.459Z,1003.48
2022-11-28T05:43:04.412Z,1003.44
2022-11-28T05:44:04.395Z,1003.48
2022-11-28T05:45:04.395Z,1003.52
2022-11-28T05:46:04.477Z,1003.50
2022-11-28T05:47:04.384Z,1003.48
2022-11-28T05:48:04.350Z,1003.46
2022-11-28T05:49:04.358Z,1003.44
2022-11-28T05:50:04.329Z,1003.50
2022-11-28T05:51:04.322Z,1003.54
2022-11-28T05:52:04.313Z,1003.53
2022-11-28T05:53:04.326Z,1003.53
2022-11-28T05:54:04.313Z,1003.52
2022-11-28T05:55:04.273Z,1003.48
2022-11-28T05:56:04.374Z,1003.48
2022-11-28T05:57:04.262Z,1003.49
2022-11-28T05:58:04.238Z,1003.45
2022-11-28T05:59:04.260Z,1003.47
2022-11-28T06:00:04.220Z,1003.48
2022-11-28T06:01:04.212Z,1003.47
2022-11-28T06:02:04.312Z,1003.50
2022-11-28T06:03:04.184Z,1003.51
2022-11-28T06:04:04.218Z,1003.50
2022-11-28T06:05:21.058Z,1003.52
2022-11-28T06:06:05.152Z,1003.47
2022-11-28T06:07:04.149Z,1003.54
2022-11-28T06:08:04.190Z,1003.54
2022-11-28T06:09:04.125Z,1003.51
2022-11-28T06:10:04.105Z,1003.59
2022-11-28T06:11:04.095Z,1003.53
2022-11-28T06:12:04.206Z,1003.44
2022-11-28T06:13:04.097Z,1003.43
2022-11-28T06:14:04.060Z,1003.40
2022-11-28T06:15:04.052Z,1003.51
2022-11-28T06:16:11.213Z,1003.41
2022-11-28T06:17:04.035Z,1003.44
2022-11-28T06:18:04.019Z,1003.55
2022-11-28T06:19:04.027Z,1003.51
2022-11-28T06:20:04.000Z,1003.51
2022-11-28T06:21:03.981Z,1003.48
2022-11-28T06:22:03.967Z,1003.56
2022-11-28T06:23:03.963Z,1003.57
2022-11-28T06:24:03.958Z,1003.56
2022-11-28T06:25:03.939Z,1003.48
2022-11-28T06:26:03.936Z,1003.56
2022-11-28T06:27:03.920Z,1003.50
2022-11-28T06:28:04.025Z,1003.46
2022-11-28T06:29:03.915Z,1003.46
2022-11-28T06:30:03.889Z,1003.46
2022-11-28T06:31:03.874Z,1003.52
2022-11-28T06:32:03.915Z,1003.49
2022-11-28T06:33:03.859Z,1003.48
2022-11-28T06:34:03.834Z,1003.46
2022-11-28T06:35:03.831Z,1003.49
2022-11-28T06:36:03.822Z,1003.45
2022-11-28T06:37:03.803Z,1003.52
2022-11-28T06:38:03.805Z,1003.45
2022-11-28T06:39:03.787Z,1003.58
2022-11-28T06:40:03.771Z,1003.53
2022-11-28T06:41:03.766Z,1003.55
2022-11-28T06:42:03.750Z,1003.59
2022-11-28T06:43:03.770Z,1003.56
2022-11-28T06:44:03.836Z,1003.61
2022-11-28T06:45:03.715Z,1003.64
2022-11-28T06:46:03.876Z,1003.59
2022-11-28T06:47:03.700Z,1003.63
2022-11-28T06:48:03.686Z,1003.65
2022-11-28T06:49:03.705Z,1003.55
2022-11-28T06:50:03.662Z,1003.65
2022-11-28T06:51:03.642Z,1003.62
2022-11-28T06:52:03.638Z,1003.62
2022-11-28T06:53:03.634Z,1003.71
2022-11-28T06:54:03.608Z,1003.63
2022-11-28T06:55:03.613Z,1003.67
2022-11-28T06:56:03.595Z,1003.60
2022-11-28T06:57:03.577Z,1003.55
2022-11-28T06:58:03.576Z,1003.61
2022-11-28T06:59:03.568Z,1003.66
2022-11-28T07:00:03.660Z,1003.64
2022-11-28T07:01:03.638Z,1003.65
2022-11-28T07:02:07.616Z,1003.70
2022-11-28T07:03:03.528Z,1003.65
2022-11-28T07:04:03.505Z,1003.71
2022-11-28T07:05:03.497Z,1003.71
2022-11-28T07:06:03.490Z,1003.66
2022-11-28T07:07:03.484Z,1003.69
2022-11-28T07:08:03.541Z,1003.64
2022-11-28T07:09:03.446Z,1003.70
2022-11-28T07:10:03.449Z,1003.71
2022-11-28T07:11:03.427Z,1003.68
2022-11-28T07:12:03.411Z,1003.72
2022-11-28T07:13:05.538Z,1003.70
2022-11-28T07:14:03.397Z,1003.70
2022-11-28T07:15:03.382Z,1003.68
2022-11-28T07:16:03.483Z,1003.68
2022-11-28T07:17:03.404Z,1003.76
2022-11-28T07:18:03.342Z,1003.73
2022-11-28T07:19:03.329Z,1003.78
2022-11-28T07:20:03.327Z,1003.77
2022-11-28T07:21:03.321Z,1003.83
2022-11-28T07:22:03.294Z,1003.75
2022-11-28T07:23:03.298Z,1003.77
2022-11-28T07:24:03.272Z,1003.73
2022-11-28T07:25:03.273Z,1003.74
2022-11-28T07:26:03.254Z,1003.73
2022-11-28T07:27:03.260Z,1003.78
2022-11-28T07:28:03.234Z,1003.76
2022-11-28T07:29:03.228Z,1003.81
2022-11-28T07:30:03.215Z,1003.86
2022-11-28T07:31:03.192Z,1003.88
2022-11-28T07:32:03.377Z,1003.88
2022-11-28T07:33:03.181Z,1003.88
2022-11-28T07:34:03.186Z,1003.87
2022-11-28T07:35:03.158Z,1003.92
2022-11-28T07:36:03.134Z,1003.96
2022-11-28T07:37:03.130Z,1003.91
2022-11-28T07:38:03.126Z,1003.89
2022-11-28T07:39:03.126Z,1003.88
2022-11-28T07:40:03.090Z,1003.94
2022-11-28T07:41:03.078Z,1003.94
2022-11-28T07:42:03.065Z,1003.90
2022-11-28T07:43:03.070Z,1003.95
2022-11-28T07:44:03.063Z,1003.92
2022-11-28T07:45:03.092Z,1004.01
2022-11-28T07:46:03.065Z,1003.95
2022-11-28T07:47:03.128Z,1004.01
2022-11-28T07:48:03.020Z,1003.98
2022-11-28T07:49:03.022Z,1003.97
2022-11-28T07:50:02.996Z,1003.96
2022-11-28T07:51:03.029Z,1003.98
2022-11-28T07:52:02.953Z,1004.01
2022-11-28T07:53:07.174Z,1003.97
2022-11-28T07:54:02.939Z,1003.96
2022-11-28T07:55:02.922Z,1004.02
2022-11-28T07:56:02.930Z,1003.97
2022-11-28T07:57:18.202Z,1004.00
2022-11-28T07:58:03.894Z,1003.97
2022-11-28T07:59:03.540Z,1004.05
2022-11-28T08:00:02.874Z,1004.02
2022-11-28T08:01:02.861Z,1004.01
2022-11-28T08:02:02.917Z,1003.95
2022-11-28T08:03:02.850Z,1003.98
2022-11-28T08:04:02.907Z,1003.97
2022-11-28T08:05:02.883Z,1004.03
2022-11-28T08:06:03.316Z,1004.04
2022-11-28T08:07:02.828Z,1004.06
2022-11-28T08:08:02.928Z,1004.03
2022-11-28T08:09:02.770Z,1004.04
2022-11-28T08:10:02.755Z,1004.01
2022-11-28T08:11:02.760Z,1004.04
2022-11-28T08:12:02.734Z,1004.02
2022-11-28T08:13:02.737Z,1004.03
2022-11-28T08:14:02.714Z,1004.01
2022-11-28T08:15:02.698Z,1003.99
2022-11-28T08:16:02.689Z,1004.00
2022-11-28T08:17:02.771Z,1004.06
2022-11-28T08:18:02.675Z,1004.02
2022-11-28T08:19:02.674Z,1004.01
2022-11-28T08:20:02.662Z,1004.02
2022-11-28T08:21:02.638Z,1004.01
2022-11-28T08:22:02.617Z,1004.02
2022-11-28T08:23:02.622Z,1003.99
2022-11-28T08:24:02.607Z,1004.01
2022-11-28T08:25:02.599Z,1003.95
2022-11-28T08:26:02.572Z,1003.99
2022-11-28T08:27:02.579Z,1004.00
2022-11-28T08:28:02.552Z,1003.99
2022-11-28T08:29:02.553Z,1003.99
2022-11-28T08:30:02.528Z,1004.03
2022-11-28T08:31:02.601Z,1003.96
2022-11-28T08:32:02.509Z,1003.95
2022-11-28T08:33:02.492Z,1004.00
2022-11-28T08:34:02.486Z,1003.95
2022-11-28T08:35:02.471Z,1004.00
2022-11-28T08:36:02.478Z,1004.00
2022-11-28T08:37:02.458Z,1003.96
2022-11-28T08:38:02.446Z,1003.98
2022-11-28T08:39:23.541Z,1003.95
2022-11-28T08:40:03.427Z,1003.96
2022-11-28T08:41:02.412Z,1003.98
2022-11-28T08:42:02.400Z,1003.97
2022-11-28T08:43:02.389Z,1003.93
2022-11-28T08:44:02.380Z,1004.01
2022-11-28T08:45:02.377Z,1004.00
2022-11-28T08:46:02.579Z,1003.96
2022-11-28T08:47:02.355Z,1003.99
2022-11-28T08:48:02.326Z,1004.02
2022-11-28T08:49:04.377Z,1003.95
2022-11-28T08:50:02.326Z,1003.96
2022-11-28T08:51:02.301Z,1003.94
2022-11-28T08:52:02.328Z,1003.94
2022-11-28T08:53:07.778Z,1003.94
2022-11-28T08:54:03.285Z,1004.00
2022-11-28T08:55:02.257Z,1003.95
2022-11-28T08:56:02.237Z,1003.99
2022-11-28T08:57:02.243Z,1003.99
2022-11-28T08:58:02.233Z,1004.04
2022-11-28T08:59:02.206Z,1004.00
2022-11-28T09:00:02.197Z,1004.08
2022-11-28T09:01:02.219Z,1004.03
2022-11-28T09:02:02.228Z,1003.99
2022-11-28T09:03:02.169Z,1003.99
2022-11-28T09:04:02.213Z,1004.05
2022-11-28T09:05:02.141Z,1004.02
2022-11-28T09:06:02.123Z,1004.05
2022-11-28T09:07:02.111Z,1004.05
2022-11-28T09:08:02.206Z,1004.10
2022-11-28T09:09:02.105Z,1004.10
2022-11-28T09:10:02.077Z,1004.04
2022-11-28T09:11:02.064Z,1004.08
2022-11-28T09:12:02.057Z,1004.01
2022-11-28T09:13:02.073Z,1004.06
2022-11-28T09:14:02.065Z,1004.04
2022-11-28T09:15:02.017Z,1004.04
2022-11-28T09:16:02.010Z,1004.04
2022-11-28T09:17:02.087Z,1004.11
2022-11-28T09:18:01.996Z,1004.13
2022-11-28T09:19:02.005Z,1004.14
2022-11-28T09:20:01.971Z,1004.16
2022-11-28T09:21:01.955Z,1004.09
2022-11-28T09:22:01.940Z,1004.11
2022-11-28T09:23:01.924Z,1004.08
2022-11-28T09:24:01.951Z,1004.13
2022-11-28T09:25:01.932Z,1004.11
2022-11-28T09:26:01.902Z,1004.13
2022-11-28T09:27:01.909Z,1004.05
2022-11-28T09:28:01.874Z,1004.12
2022-11-28T09:29:01.881Z,1004.02
2022-11-28T09:30:01.864Z,1004.06
2022-11-28T09:31:01.906Z,1004.13
2022-11-28T09:32:01.835Z,1004.15
2022-11-28T09:33:01.847Z,1004.17
2022-11-28T09:34:01.808Z,1004.13
2022-11-28T09:35:01.805Z,1004.12
2022-11-28T09:36:01.787Z,1004.16
2022-11-28T09:37:04.800Z,1004.22
2022-11-28T09:38:01.771Z,1004.13
2022-11-28T09:39:01.754Z,1004.18
2022-11-28T09:40:16.453Z,1004.19
2022-11-28T09:41:02.725Z,1004.17
2022-11-28T09:42:01.722Z,1004.21
2022-11-28T09:43:01.707Z,1004.20
2022-11-28T09:44:01.691Z,1004.22
2022-11-28T09:45:01.695Z,1004.22
2022-11-28T09:46:01.728Z,1004.24
2022-11-28T09:47:01.662Z,1004.18
2022-11-28T09:48:01.661Z,1004.23
2022-11-28T09:49:01.632Z,1004.21
2022-11-28T09:50:01.645Z,1004.23
2022-11-28T09:51:01.621Z,1004.28
2022-11-28T09:52:01.669Z,1004.22
2022-11-28T09:53:01.704Z,1004.27
2022-11-28T09:54:01.583Z,1004.24
2022-11-28T09:55:01.568Z,1004.24
2022-11-28T09:56:01.601Z,1004.21
2022-11-28T09:57:01.548Z,1004.24
2022-11-28T09:58:01.535Z,1004.27
2022-11-28T09:59:01.545Z,1004.27
2022-11-28T10:00:01.520Z,1004.31
2022-11-28T10:01:01.520Z,1004.25
2022-11-28T10:02:01.491Z,1004.22
2022-11-28T10:03:01.480Z,1004.30
2022-11-28T10:04:01.656Z,1004.26
2022-11-28T10:05:01.530Z,1004.27
2022-11-28T10:06:01.449Z,1004.29
2022-11-28T10:07:01.440Z,1004.33
2022-11-28T10:08:01.536Z,1004.32
2022-11-28T10:09:01.411Z,1004.27
2022-11-28T10:10:01.412Z,1004.28
2022-11-28T10:11:01.409Z,1004.30
2022-11-28T10:12:01.397Z,1004.29
2022-11-28T10:13:01.373Z,1004.29
2022-11-28T10:14:08.158Z,1004.26
2022-11-28T10:15:02.356Z,1004.29
2022-11-28T10:16:01.333Z,1004.24
2022-11-28T10:17:01.413Z,1004.30
2022-11-28T10:18:01.309Z,1004.25
2022-11-28T10:19:01.317Z,1004.31
2022-11-28T10:20:01.544Z,1004.30
2022-11-28T10:21:01.280Z,1004.24
2022-11-28T10:22:01.279Z,1004.26
2022-11-28T10:23:01.269Z,1004.26
2022-11-28T10:24:01.248Z,1004.19
2022-11-28T10:25:01.226Z,1004.25
2022-11-28T10:26:01.232Z,1004.23
2022-11-28T10:27:01.205Z,1004.25
2022-11-28T10:28:01.230Z,1004.25
2022-11-28T10:29:01.196Z,1004.22
2022-11-28T10:30:01.235Z,1004.26
2022-11-28T10:31:01.248Z,1004.23
2022-11-28T10:32:01.153Z,1004.22
2022-11-28T10:33:01.154Z,1004.27
2022-11-28T10:34:01.134Z,1004.24
2022-11-28T10:35:01.143Z,1004.25
2022-11-28T10:36:01.119Z,1004.27
2022-11-28T10:37:01.099Z,1004.28
2022-11-28T10:38:01.150Z,1004.27
2022-11-28T10:39:01.103Z,1004.25
2022-11-28T10:40:01.062Z,1004.32
2022-11-28T10:41:01.054Z,1004.32
2022-11-28T10:42:01.040Z,1004.27
2022-11-28T10:43:01.025Z,1004.27
2022-11-28T10:44:01.048Z,1004.27
2022-11-28T10:45:01.039Z,1004.28
2022-11-28T10:46:01.041Z,1004.24
2022-11-28T10:47:01.004Z,1004.23
2022-11-28T10:48:07.471Z,1004.26
2022-11-28T10:49:01.976Z,1004.23
2022-11-28T10:50:00.951Z,1004.22
2022-11-28T10:51:00.951Z,1004.26
2022-11-28T10:52:00.933Z,1004.22
2022-11-28T10:53:00.931Z,1004.26
2022-11-28T10:54:00.904Z,1004.23
2022-11-28T10:55:00.934Z,1004.23
2022-11-28T10:56:00.920Z,1004.26
2022-11-28T10:57:00.893Z,1004.18
2022-11-28T10:58:00.862Z,1004.21
2022-11-28T10:59:00.885Z,1004.28
2022-11-28T11:00:00.859Z,1004.19
2022-11-28T11:01:00.918Z,1004.22
2022-11-28T11:02:00.882Z,1004.18
2022-11-28T11:03:00.804Z,1004.23
2022-11-28T11:04:00.825Z,1004.23
2022-11-28T11:05:00.810Z,1004.23
2022-11-28T11:06:00.774Z,1004.26
2022-11-28T11:07:09.144Z,1004.24
2022-11-28T11:08:01.836Z,1004.25
2022-11-28T11:09:00.736Z,1004.26
2022-11-28T11:10:00.738Z,1004.24
2022-11-28T11:11:00.725Z,1004.19
2022-11-28T11:12:00.726Z,1004.26
2022-11-28T11:13:00.690Z,1004.18
2022-11-28T11:14:00.687Z,1004.17
2022-11-28T11:15:00.669Z,1004.18
2022-11-28T11:16:00.845Z,1004.19
2022-11-28T11:17:00.645Z,1004.10
2022-11-28T11:18:00.681Z,1004.17
2022-11-28T11:19:00.642Z,1004.22
2022-11-28T11:20:00.616Z,1004.14
2022-11-28T11:21:00.605Z,1004.17
2022-11-28T11:22:00.638Z,1004.14
2022-11-28T11:23:00.601Z,1004.16
2022-11-28T11:24:00.570Z,1004.08
2022-11-28T11:25:00.578Z,1004.13
2022-11-28T11:26:00.543Z,1004.12
2022-11-28T11:27:00.536Z,1004.11
2022-11-28T11:28:00.518Z,1004.10
2022-11-28T11:29:00.509Z,1004.02
2022-11-28T11:30:00.506Z,1004.06
2022-11-28T11:31:00.633Z,1004.01
2022-11-28T11:32:00.515Z,1004.02
2022-11-28T11:33:00.463Z,1004.10
2022-11-28T11:34:00.452Z,1004.05
2022-11-28T11:35:00.439Z,1004.08
2022-11-28T11:36:00.436Z,1004.08
2022-11-28T11:37:00.438Z,1004.01
2022-11-28T11:38:00.441Z,1004.09
2022-11-28T11:39:00.403Z,1004.13
2022-11-28T11:40:00.388Z,1004.11
2022-11-28T11:41:00.373Z,1004.12
2022-11-28T11:42:00.366Z,1004.08
2022-11-28T11:43:00.382Z,1004.09
2022-11-28T11:44:00.339Z,1004.11
2022-11-28T11:45:00.336Z,1004.12
2022-11-28T11:46:00.390Z,1004.12
2022-11-28T11:47:00.305Z,1004.03
2022-11-28T11:48:00.321Z,1004.09
2022-11-28T11:49:00.312Z,1004.07
2022-11-28T11:50:00.272Z,1004.07
2022-11-28T11:51:00.267Z,1004.08
2022-11-28T11:52:00.277Z,1004.00
2022-11-28T11:53:00.242Z,1004.04
2022-11-28T11:54:00.226Z,1004.07
2022-11-28T11:55:00.233Z,1004.15
2022-11-28T11:56:00.204Z,1004.08
2022-11-28T11:57:30.603Z,1004.04
2022-11-28T11:58:05.411Z,1004.05
2022-11-28T11:59:00.168Z,1004.06
2022-11-28T12:00:00.185Z,1004.02
2022-11-28T12:01:00.185Z,1004.12
2022-11-28T12:02:00.139Z,1004.14
2022-11-28T12:03:00.304Z,1004.03
2022-11-28T12:04:05.616Z,1004.03
2022-11-28T12:05:01.230Z,1004.01